createdAt,value
2022-11-29T00:01:03.372Z,30.91
2022-11-29T00:03:31.208Z,30.11
2022-11-29T00:06:04.020Z,30.22
2022-11-29T00:08:31.355Z,29.55
2022-11-29T00:11:03.106Z,30.17
2022-11-29T00:13:30.735Z,30.64
2022-11-29T00:16:01.799Z,30.37
2022-11-29T00:18:29.094Z,29.88
2022-11-29T00:20:56.401Z,30.00
2022-11-29T00:23:23.606Z,29.48
2022-11-29T00:25:51.053Z,29.87
2022-11-29T00:28:18.420Z,29.24
2022-11-29T00:30:45.656Z,29.34
2022-11-29T00:33:12.960Z,30.59
2022-11-29T00:35:40.229Z,30.45
2022-11-29T00:38:07.677Z,30.25
2022-11-29T00:40:34.869Z,29.92
2022-11-29T00:43:02.179Z,30.38
2022-11-29T00:45:29.469Z,30.10
2022-11-29T00:47:56.786Z,29.98
2022-11-29T00:50:24.057Z,29.31
2022-11-29T00:52:51.262Z,30.06
2022-11-29T00:55:18.562Z,30.20
2022-11-29T00:57:45.921Z,29.95
2022-11-29T01:00:13.418Z,29.90
2022-11-29T01:02:40.657Z,30.24
2022-11-29T01:05:08.156Z,30.24
2022-11-29T01:07:35.502Z,30.63
2022-11-29T01:10:02.790Z,29.49
2022-11-29T01:12:30.055Z,29.88
2022-11-29T01:14:58.372Z,30.07
2022-11-29T01:17:25.653Z,29.49
2022-11-29T01:19:53.053Z,30.96
2022-11-29T01:22:20.290Z,30.39
2022-11-29T01:24:47.525Z,30.10
2022-11-29T01:27:14.972Z,30.28
2022-11-29T01:29:42.230Z,29.83
2022-11-29T01:32:09.687Z,30.29
2022-11-29T01:34:37.374Z,30.48
2022-11-29T01:37:04.828Z,29.53
2022-11-29T01:39:32.029Z,30.53
2022-11-29T01:42:00.881Z,29.77
2022-11-29T01:44:29.204Z,30.58
2022-11-29T01:46:57.152Z,29.88
2022-11-29T01:49:27.283Z,30.75
2022-11-29T01:51:58.103Z,30.30
2022-11-29T01:54:25.705Z,29.78
2022-11-29T01:56:53.243Z,30.27
2022-11-29T01:59:22.024Z,29.97
2022-11-29T02:01:49.405Z,30.04
2022-11-29T02:04:18.101Z,30.20
2022-11-29T02:06:45.873Z,29.79
2022-11-29T02:09:20.056Z,30.43
2022-11-29T02:11:47.358Z,30.61
2022-11-29T02:14:43.944Z,30.21
2022-11-29T02:17:22.561Z,30.62
2022-11-29T02:20:08.751Z,30.79
2022-11-29T02:22:48.825Z,30.13
2022-11-29T02:25:16.060Z,30.71
2022-11-29T02:27:46.333Z,30.45
2022-11-29T02:30:19.963Z,30.36
2022-11-29T02:33:05.914Z,29.97
2022-11-29T02:35:36.063Z,30.71
2022-11-29T02:38:23.750Z,30.53
2022-11-29T02:41:01.119Z,29.96
2022-11-29T02:43:37.532Z,29.57
2022-11-29T02:46:22.984Z,29.69
2022-11-29T02:48:58.090Z,30.58
2022-11-29T02:51:49.768Z,30.92
2022-11-29T02:54:16.923Z,30.60
2022-11-29T02:56:47.773Z,30.25
2022-11-29T02:59:21.170Z,30.12
2022-11-29T03:01:54.522Z,30.48
2022-11-29T03:04:31.960Z,30.01
2022-11-29T03:07:05.359Z,30.46
2022-11-29T03:09:32.969Z,30.29
2022-11-29T03:12:00.230Z,30.31
2022-11-29T03:14:31.151Z,29.51
2022-11-29T03:17:16.979Z,30.40
2022-11-29T03:19:55.612Z,30.26
2022-11-29T03:22:23.026Z,30.26
2022-11-29T03:25:02.653Z,30.11
2022-11-29T03:27:39.718Z,29.70
2022-11-29T03:30:10.092Z,29.71
2022-11-29T03:32:41.039Z,29.93
2022-11-29T03:35:25.502Z,29.26
2022-11-29T03:37:58.998Z,30.41
2022-11-29T03:40:44.703Z,30.08
2022-11-29T03:43:35.095Z,30.07
2022-11-29T03:46:08.634Z,29.85
2022-11-29T03:49:05.579Z,30.21
2022-11-29T03:51:41.744Z,30.41
2022-11-29T03:54:16.149Z,30.17
2022-11-29T03:56:43.630Z,30.39
2022-11-29T03:59:13.582Z,30.20
2022-11-29T04:01:44.112Z,29.54
2022-11-29T04:04:37.665Z,30.03
2022-11-29T04:07:28.539Z,30.50
2022-11-29T04:10:14.527Z,30.42
2022-11-29T04:12:59.092Z,30.30
2022-11-29T04:15:45.114Z,30.79
2022-11-29T04:18:12.464Z,30.37
2022-11-29T04:20:48.720Z,30.78
2022-11-29T04:23:35.181Z,30.29
2022-11-29T04:26:02.398Z,30.58
2022-11-29T04:28:29.591Z,30.22
2022-11-29T04:31:09.124Z,30.70
2022-11-29T04:33:39.487Z,30.37
2022-11-29T04:36:14.316Z,30.09
2022-11-29T04:38:48.076Z,29.73
2022-11-29T04:41:21.542Z,29.90
2022-11-29T04:43:48.746Z,30.47
2022-11-29T04:46:34.825Z,30.75
2022-11-29T04:49:05.253Z,29.92
2022-11-29T04:51:47.902Z,29.73
2022-11-29T04:54:27.372Z,30.29
2022-11-29T04:56:59.792Z,29.75
2022-11-29T04:59:33.006Z,31.14
2022-11-29T05:02:19.221Z,30.64
2022-11-29T05:05:06.779Z,30.47
2022-11-29T05:07:57.680Z,30.85
2022-11-29T05:10:31.399Z,30.45
2022-11-29T05:12:58.726Z,29.98
2022-11-29T05:15:25.911Z,30.87
2022-11-29T05:17:58.814Z,31.33
2022-11-29T05:20:28.996Z,30.83
2022-11-29T05:23:07.522Z,30.70
2022-11-29T05:25:40.071Z,29.74
2022-11-29T05:28:12.450Z,30.68
2022-11-29T05:30:45.860Z,30.37
2022-11-29T05:33:32.325Z,30.95
2022-11-29T05:36:11.659Z,30.98
2022-11-29T05:39:00.891Z,30.31
2022-11-29T05:41:51.181Z,30.43
2022-11-29T05:44:18.561Z,30.56
2022-11-29T05:46:58.156Z,29.73
2022-11-29T05:49:28.342Z,30.75
2022-11-29T05:52:19.276Z,30.22
2022-11-29T05:54:49.622Z,30.10
2022-11-29T05:57:23.062Z,30.12
2022-11-29T05:59:51.328Z,30.23
2022-11-29T06:02:27.808Z,30.19
2022-11-29T06:05:01.060Z,30.84
2022-11-29T06:07:37.395Z,30.99
2022-11-29T06:10:12.796Z,31.06
2022-11-29T06:12:42.729Z,30.81
2022-11-29T06:15:39.622Z,30.19
2022-11-29T06:18:22.219Z,30.34
2022-11-29T06:21:08.219Z,30.23
2022-11-29T06:23:50.836Z,29.83
2022-11-29T06:26:18.255Z,30.43
2022-11-29T06:29:04.072Z,30.64
2022-11-29T06:31:38.802Z,30.16
2022-11-29T06:34:30.702Z,30.48
2022-11-29T06:37:05.641Z,30.89
2022-11-29T06:39:33.069Z,30.69
2022-11-29T06:42:00.320Z,30.86
2022-11-29T06:44:27.828Z,30.19
2022-11-29T06:47:00.951Z,30.58
2022-11-29T06:49:34.727Z,30.24
2022-11-29T06:52:01.938Z,30.67
2022-11-29T06:54:48.167Z,30.59
2022-11-29T06:57:18.404Z,30.59
2022-11-29T06:59:48.507Z,30.86
2022-11-29T07:02:42.247Z,30.56
2022-11-29T07:05:09.544Z,30.50
2022-11-29T07:07:36.915Z,30.13
2022-11-29T07:10:06.072Z,30.76
2022-11-29T07:12:34.899Z,29.98
2022-11-29T07:15:02.233Z,30.55
2022-11-29T07:17:40.063Z,30.85
2022-11-29T07:20:22.568Z,30.10
2022-11-29T07:22:56.088Z,31.08
2022-11-29T07:25:42.155Z,29.96
2022-11-29T07:28:15.311Z,30.64
2022-11-29T07:30:51.099Z,30.17
2022-11-29T07:33:42.320Z,31.02
2022-11-29T07:36:29.003Z,30.76
2022-11-29T07:39:16.595Z,30.79
2022-11-29T07:41:50.541Z,30.91
2022-11-29T07:44:28.338Z,29.91
2022-11-29T07:46:55.628Z,31.07
2022-11-29T07:49:22.853Z,30.61
2022-11-29T07:51:50.254Z,29.75
2022-11-29T07:54:18.744Z,30.74
2022-11-29T07:56:46.470Z,30.45
2022-11-29T07:59:14.690Z,29.98
2022-11-29T08:01:42.299Z,30.32
2022-11-29T08:04:09.678Z,30.70
2022-11-29T08:06:37.040Z,30.57
2022-11-29T08:09:04.656Z,30.95
2022-11-29T08:11:31.995Z,30.02
2022-11-29T08:14:00.247Z,30.67
2022-11-29T08:16:27.886Z,30.48
2022-11-29T08:18:55.274Z,30.60
2022-11-29T08:21:22.952Z,30.34
2022-11-29T08:23:51.145Z,30.66
2022-11-29T08:26:19.096Z,30.13
2022-11-29T08:28:51.806Z,30.05
2022-11-29T08:31:19.822Z,30.53
2022-11-29T08:33:47.385Z,29.97
2022-11-29T08:36:19.150Z,30.72
2022-11-29T08:38:46.769Z,30.75
2022-11-29T08:41:15.341Z,30.32
2022-11-29T08:43:43.348Z,30.48
2022-11-29T08:46:16.707Z,29.95
2022-11-29T08:48:46.322Z,30.44
2022-11-29T08:51:13.812Z,30.49
2022-11-29T08:53:41.357Z,29.96
2022-11-29T08:56:41.583Z,30.49
2022-11-29T08:58:57.671Z,30.51
2022-11-29T09:01:25.133Z,29.69
2022-11-29T09:04:06.446Z,31.26
2022-11-29T09:06:41.244Z,30.70
2022-11-29T09:09:08.641Z,30.83
2022-11-29T09:11:36.629Z,30.39
2022-11-29T09:14:05.572Z,29.75
2022-11-29T09:16:34.350Z,30.34
2022-11-29T09:19:01.937Z,30.11
2022-11-29T09:21:30.538Z,30.77
2022-11-29T09:24:01.812Z,30.57
2022-11-29T09:26:31.384Z,29.73
2022-11-29T09:29:01.289Z,30.62
2022-11-29T09:31:30.071Z,30.03
2022-11-29T09:33:57.417Z,29.51
2022-11-29T09:36:28.471Z,30.65
2022-11-29T09:38:57.512Z,30.79
2022-11-29T09:41:27.544Z,30.59
2022-11-29T09:44:00.808Z,30.86
2022-11-29T09:46:48.267Z,30.98
2022-11-29T09:49:35.380Z,30.31
2022-11-29T09:52:21.099Z,29.48
2022-11-29T09:55:14.881Z,30.19
2022-11-29T09:57:44.136Z,30.25
2022-11-29T10:00:16.642Z,30.71
2022-11-29T10:02:47.863Z,30.46
2022-11-29T10:05:15.272Z,30.91
2022-11-29T10:07:50.828Z,30.60
2022-11-29T10:10:18.187Z,30.17
2022-11-29T10:12:50.678Z,30.40
2022-11-29T10:15:40.058Z,31.50
2022-11-29T10:18:24.001Z,31.07
2022-11-29T10:20:53.795Z,30.35
2022-11-29T10:23:32.090Z,30.85
2022-11-29T10:25:59.518Z,30.30
2022-11-29T10:28:30.632Z,30.44
2022-11-29T10:31:18.252Z,31.12
2022-11-29T10:33:45.972Z,30.80
2022-11-29T10:36:21.019Z,30.69
2022-11-29T10:38:49.203Z,30.76
2022-11-29T10:41:19.434Z,30.74
2022-11-29T10:43:47.780Z,30.07
2022-11-29T10:46:19.948Z,30.67
2022-11-29T10:48:47.407Z,31.04
2022-11-29T10:51:16.032Z,30.73
2022-11-29T10:53:44.774Z,30.20
2022-11-29T10:56:18.142Z,30.44
2022-11-29T10:58:53.409Z,30.52
2022-11-29T11:01:21.217Z,30.71
2022-11-29T11:03:53.370Z,29.83
2022-11-29T11:06:22.120Z,30.44
2022-11-29T11:08:57.029Z,30.40
2022-11-29T11:11:33.639Z,30.16
2022-11-29T11:14:06.083Z,31.20
2022-11-29T11:16:37.325Z,30.89
2022-11-29T11:19:23.682Z,30.95
2022-11-29T11:21:51.402Z,31.23
2022-11-29T11:24:24.384Z,30.20
2022-11-29T11:26:52.059Z,30.73
2022-11-29T11:29:22.182Z,30.22
2022-11-29T11:31:54.736Z,30.59
2022-11-29T11:34:34.422Z,30.28
2022-11-29T11:37:20.479Z,30.37
2022-11-29T11:39:49.903Z,30.16
2022-11-29T11:42:37.681Z,29.63
2022-11-29T11:45:05.118Z,30.85
2022-11-29T11:47:35.007Z,29.64
2022-11-29T11:50:02.664Z,30.18
2022-11-29T11:52:39.576Z,30.57
2022-11-29T11:55:28.296Z,30.09
2022-11-29T11:58:03.370Z,30.66
2022-11-29T12:01:02.392Z,30.37
2022-11-29T12:03:31.634Z,30.50
2022-11-29T12:06:03.270Z,30.17
2022-11-29T12:08:30.925Z,30.45
2022-11-29T12:11:07.022Z,30.38
2022-11-29T12:13:37.346Z,30.24
2022-11-29T12:16:09.008Z,30.05
2022-11-29T12:18:40.792Z,30.16
2022-11-29T12:21:13.220Z,30.29
2022-11-29T12:24:00.751Z,30.46
2022-11-29T12:26:56.340Z,31.38
2022-11-29T12:29:22.449Z,31.37
2022-11-29T12:32:08.614Z,30.86
2022-11-29T12:35:14.843Z,29.89
2022-11-29T12:37:59.914Z,31.21
2022-11-29T12:40:39.429Z,31.30
2022-11-29T12:43:15.991Z,31.40
2022-11-29T12:45:55.830Z,31.21
2022-11-29T12:48:25.974Z,30.71
2022-11-29T12:50:56.083Z,31.31
2022-11-29T12:53:35.828Z,31.43
2022-11-29T12:56:18.895Z,30.95
2022-11-29T12:58:49.320Z,30.41
2022-11-29T13:01:16.666Z,31.13
2022-11-29T13:03:58.875Z,30.40
2022-11-29T13:06:31.717Z,30.87
2022-11-29T13:09:17.809Z,30.61
2022-11-29T13:12:03.565Z,30.90
2022-11-29T13:14:51.128Z,30.32
2022-11-29T13:17:34.497Z,30.25
2022-11-29T13:20:16.636Z,30.66
2022-11-29T13:22:57.565Z,30.46
2022-11-29T13:25:28.035Z,29.42
2022-11-29T13:28:03.413Z,30.60
2022-11-29T13:30:31.363Z,31.01
2022-11-29T13:33:15.192Z,30.87
2022-11-29T13:35:48.706Z,30.00
2022-11-29T13:38:23.566Z,30.59
2022-11-29T13:41:06.926Z,30.47
2022-11-29T13:43:43.554Z,30.65
2022-11-29T13:46:26.345Z,30.44
2022-11-29T13:48:54.276Z,29.80
2022-11-29T13:51:26.183Z,31.01
2022-11-29T13:53:54.979Z,31.14
2022-11-29T13:56:26.395Z,30.84
2022-11-29T13:58:54.462Z,30.03
2022-11-29T14:01:23.439Z,30.53
2022-11-29T14:04:07.543Z,30.86
2022-11-29T14:06:36.243Z,29.92
2022-11-29T14:09:18.482Z,31.15
2022-11-29T14:11:52.671Z,30.92
2022-11-29T14:14:26.584Z,30.02
2022-11-29T14:16:57.936Z,30.18
2022-11-29T14:19:32.792Z,30.04
2022-11-29T14:22:06.775Z,29.93
2022-11-29T14:24:37.036Z,30.40
2022-11-29T14:27:07.767Z,30.71
2022-11-29T14:29:50.422Z,30.25
2022-11-29T14:32:39.301Z,29.34
2022-11-29T14:35:10.045Z,30.35
2022-11-29T14:37:37.261Z,29.52
2022-11-29T14:40:15.918Z,30.68
2022-11-29T14:42:50.201Z,30.55
2022-11-29T14:45:23.668Z,29.90
2022-11-29T14:47:51.980Z,30.15
2022-11-29T14:50:34.403Z,30.31
2022-11-29T14:53:02.314Z,30.20
2022-11-29T14:55:31.610Z,30.48
2022-11-29T14:58:06.050Z,30.20
2022-11-29T15:00:38.160Z,30.87
2022-11-29T15:03:14.019Z,30.25
2022-11-29T15:05:46.343Z,30.43
2022-11-29T15:08:28.514Z,29.57
2022-11-29T15:11:01.569Z,30.64
2022-11-29T15:13:31.855Z,30.00
2022-11-29T15:16:11.978Z,30.06
2022-11-29T15:18:45.384Z,30.84
2022-11-29T15:21:18.949Z,30.86
2022-11-29T15:23:46.189Z,30.58
2022-11-29T15:26:22.167Z,29.24
2022-11-29T15:28:49.422Z,29.36
2022-11-29T15:31:19.862Z,30.12
2022-11-29T15:33:48.855Z,29.71
2022-11-29T15:36:16.093Z,30.65
2022-11-29T15:38:43.312Z,29.84
2022-11-29T15:41:30.793Z,30.44
2022-11-29T15:44:02.270Z,29.81
2022-11-29T15:46:30.996Z,30.25
2022-11-29T15:49:18.068Z,29.99
2022-11-29T15:51:48.438Z,30.05
2022-11-29T15:54:34.292Z,30.12
2022-11-29T15:57:10.659Z,29.40
2022-11-29T15:59:40.709Z,30.33
2022-11-29T16:02:28.242Z,30.25
2022-11-29T16:05:01.405Z,30.66
2022-11-29T16:07:32.746Z,30.72
2022-11-29T16:10:03.049Z,30.28
2022-11-29T16:12:30.310Z,30.39
2022-11-29T16:14:59.055Z,30.08
2022-11-29T16:17:33.972Z,30.63
2022-11-29T16:20:05.414Z,31.06
2022-11-29T16:22:32.757Z,30.48
2022-11-29T16:25:05.145Z,30.62
2022-11-29T16:27:35.899Z,29.29
2022-11-29T16:30:03.994Z,29.48
2022-11-29T16:32:32.637Z,30.29
2022-11-29T16:35:08.635Z,29.95
2022-11-29T16:37:39.315Z,31.03
2022-11-29T16:40:07.000Z,30.24
2022-11-29T16:42:34.897Z,30.35
2022-11-29T16:45:03.787Z,30.19
2022-11-29T16:48:00.435Z,29.51
2022-11-29T16:50:28.757Z,30.34
2022-11-29T16:52:57.120Z,30.47
2022-11-29T16:55:24.630Z,29.57
2022-11-29T16:57:52.418Z,29.01
2022-11-29T17:00:31.670Z,29.10
2022-11-29T17:02:59.484Z,29.90
2022-11-29T17:05:27.276Z,29.64
2022-11-29T17:07:54.785Z,29.88
2022-11-29T17:10:23.959Z,29.52
2022-11-29T17:12:51.377Z,30.00
2022-11-29T17:15:18.799Z,29.33
2022-11-29T17:17:46.034Z,30.19
2022-11-29T17:20:13.867Z,30.06
2022-11-29T17:22:41.896Z,29.50
2022-11-29T17:25:09.866Z,29.16
2022-11-29T17:27:37.217Z,29.90
2022-11-29T17:30:05.952Z,30.06
2022-11-29T17:32:33.862Z,29.28
2022-11-29T17:35:01.211Z,29.87
2022-11-29T17:37:31.817Z,30.03
2022-11-29T17:39:59.089Z,30.67
2022-11-29T17:42:26.639Z,30.19
2022-11-29T17:44:54.136Z,30.70
2022-11-29T17:47:21.379Z,29.79
2022-11-29T17:49:48.865Z,30.39
2022-11-29T17:52:16.249Z,30.10
2022-11-29T17:54:44.180Z,30.48
2022-11-29T17:57:11.410Z,30.06
2022-11-29T17:59:38.720Z,30.32
2022-11-29T18:02:06.081Z,29.46
2022-11-29T18:04:33.368Z,30.07
2022-11-29T18:07:01.611Z,29.76
2022-11-29T18:09:28.892Z,30.00
2022-11-29T18:11:56.215Z,29.97
2022-11-29T18:14:24.110Z,29.79
2022-11-29T18:16:51.782Z,30.71
2022-11-29T18:19:20.196Z,30.42
2022-11-29T18:21:48.172Z,30.55
2022-11-29T18:24:15.480Z,30.36
2022-11-29T18:26:43.098Z,30.56
2022-11-29T18:29:10.605Z,30.54
2022-11-29T18:31:39.431Z,30.87
2022-11-29T18:34:09.676Z,31.11
2022-11-29T18:36:43.196Z,30.27
2022-11-29T18:39:14.087Z,30.25
2022-11-29T18:41:43.085Z,30.20
2022-11-29T18:44:11.654Z,30.57
2022-11-29T18:46:39.957Z,30.20
2022-11-29T18:49:08.591Z,29.96
2022-11-29T18:51:36.567Z,29.88
2022-11-29T18:54:04.275Z,27.83
2022-11-29T18:56:32.810Z,29.30
2022-11-29T18:59:01.507Z,29.42
2022-11-29T19:01:29.812Z,28.91
2022-11-29T19:03:58.286Z,29.15
2022-11-29T19:06:27.048Z,28.75
2022-11-29T19:08:54.719Z,29.05
2022-11-29T19:11:23.516Z,28.97
2022-11-29T19:13:56.312Z,28.75
2022-11-29T19:16:24.677Z,29.28
2022-11-29T19:18:53.047Z,28.94
2022-11-29T19:21:21.133Z,29.13
2022-11-29T19:23:56.249Z,29.26
2022-11-29T19:26:24.517Z,29.06
2022-11-29T19:28:52.358Z,29.27
2022-11-29T19:31:20.532Z,28.60
2022-11-29T19:33:48.030Z,28.45
2022-11-29T19:36:17.154Z,28.77
2022-11-29T19:38:48.860Z,28.92
2022-11-29T19:41:21.676Z,29.08
2022-11-29T19:43:48.981Z,29.31
2022-11-29T19:46:17.342Z,29.02
2022-11-29T19:48:44.680Z,29.31
2022-11-29T19:51:12.965Z,29.10
2022-11-29T19:53:40.359Z,29.09
2022-11-29T19:56:09.037Z,28.40
2022-11-29T19:58:36.597Z,28.91
2022-11-29T20:01:08.215Z,29.13
2022-11-29T20:03:35.611Z,29.23
2022-11-29T20:06:03.601Z,28.74
2022-11-29T20:08:31.147Z,28.63
2022-11-29T20:11:08.470Z,28.57
2022-11-29T20:13:36.303Z,28.83
2022-11-29T20:16:04.864Z,29.04
2022-11-29T20:18:33.173Z,29.26
2022-11-29T20:21:04.991Z,29.14
2022-11-29T20:23:32.706Z,29.03
2022-11-29T20:26:00.171Z,28.80
2022-11-29T20:28:28.292Z,28.85
2022-11-29T20:30:55.698Z,28.95
2022-11-29T20:33:24.335Z,28.76
2022-11-29T20:35:57.812Z,29.01
2022-11-29T20:38:32.746Z,29.20
2022-11-29T20:41:03.844Z,28.96
2022-11-29T20:44:09.511Z,28.68
2022-11-29T20:46:36.937Z,28.74
2022-11-29T20:49:06.684Z,28.44
2022-11-29T20:51:41.509Z,28.53
2022-11-29T20:54:10.411Z,28.43
2022-11-29T20:56:37.641Z,28.14
2022-11-29T20:59:05.029Z,28.50
2022-11-29T21:01:32.248Z,28.28
2022-11-29T21:03:59.509Z,28.52
2022-11-29T21:06:26.885Z,28.62
2022-11-29T21:08:54.368Z,28.10
2022-11-29T21:11:21.878Z,28.25
2022-11-29T21:13:49.335Z,28.34
2022-11-29T21:16:16.640Z,28.15
2022-11-29T21:18:44.339Z,28.22
2022-11-29T21:21:22.754Z,28.23
2022-11-29T21:23:56.977Z,28.31
2022-11-29T21:26:30.058Z,28.25
2022-11-29T21:29:00.171Z,28.00
2022-11-29T21:31:27.707Z,28.15
2022-11-29T21:33:55.163Z,28.40
2022-11-29T21:36:22.526Z,28.13
2022-11-29T21:38:54.880Z,28.08
2022-11-29T21:41:23.214Z,27.87
2022-11-29T21:44:06.094Z,28.27
2022-11-29T21:46:35.301Z,28.44
2022-11-29T21:49:02.607Z,27.93
2022-11-29T21:51:29.895Z,28.28
2022-11-29T21:53:57.111Z,28.31
2022-11-29T21:56:24.469Z,28.25
2022-11-29T21:58:51.725Z,28.29
2022-11-29T22:01:19.868Z,28.12
2022-11-29T22:03:47.750Z,28.29
2022-11-29T22:06:18.334Z,28.15
2022-11-29T22:08:46.354Z,27.92
2022-11-29T22:11:14.894Z,27.79
2022-11-29T22:14:02.715Z,27.74
2022-11-29T22:16:30.175Z,27.60
2022-11-29T22:18:57.528Z,27.41
2022-11-29T22:21:24.801Z,27.87
2022-11-29T22:23:52.335Z,27.74
2022-11-29T22:26:19.657Z,27.68
2022-11-29T22:28:46.875Z,27.73
2022-11-29T22:31:14.202Z,27.87
2022-11-29T22:33:41.646Z,27.75
2022-11-29T22:36:10.246Z,27.83
2022-11-29T22:38:38.016Z,28.08
2022-11-29T22:41:06.356Z,27.59
2022-11-29T22:43:34.268Z,27.97
2022-11-29T22:46:09.792Z,27.63
2022-11-29T22:48:39.181Z,28.13
2022-11-29T22:51:06.923Z,27.86
2022-11-29T22:53:34.917Z,27.82
2022-11-29T22:56:02.978Z,27.55
2022-11-29T22:58:30.383Z,27.54
2022-11-29T23:01:05.155Z,27.37
2022-11-29T23:03:33.320Z,27.50
2022-11-29T23:06:07.157Z,27.42
2022-11-29T23:08:34.997Z,27.45
2022-11-29T23:11:04.404Z,27.14
2022-11-29T23:13:32.479Z,27.35
2022-11-29T23:16:00.517Z,27.51
2022-11-29T23:18:28.278Z,27.53
2022-11-29T23:21:03.155Z,27.54
2022-11-29T23:23:30.880Z,27.43
2022-11-29T23:25:58.589Z,27.56
2022-11-29T23:28:26.483Z,27.41
2022-11-29T23:30:54.475Z,27.28
2022-11-29T23:33:22.346Z,27.07
2022-11-29T23:35:50.440Z,26.97
2022-11-29T23:38:18.439Z,27.30
2022-11-29T23:40:45.668Z,27.31
2022-11-29T23:43:14.426Z,27.05
2022-11-29T23:45:42.242Z,27.30
2022-11-29T23:48:09.631Z,27.20
2022-11-29T23:50:37.026Z,26.90
2022-11-29T23:53:05.088Z,26.93
2022-11-29T23:55:32.331Z,27.03
2022-11-29T23:58:02.475Z,26.82
